sensor_id;sensor_type;location;lat;lon;timestamp;temperature;humidity
47514;DHT22;33951;51.988;5.910;2023-07-30T04:03:09;15.60;99.90
47514;DHT22;33951;51.988;5.910;2023-07-30T04:05:35;15.40;99.90
47514;DHT22;33951;51.988;5.910;2023-07-30T04:08:01;15.40;99.90
47514;DHT22;33951;51.988;5.910;2023-07-30T04:10:27;15.50;99.90
47514;DHT22;33951;51.988;5.910;2023-07-30T04:12:55;15.50;99.90
47514;DHT22;33951;51.988;5.910;2023-07-30T05:20:24;15.90;99.90
47514;DHT22;33951;51.988;5.910;2023-07-30T05:22:52;16.00;99.90
47514;DHT22;33951;51.988;5.910;2023-07-30T05:25:21;16.00;99.90
47514;DHT22;33951;51.988;5.910;2023-07-30T05:27:53;16.10;99.90
47514;DHT22;33951;51.988;5.910;2023-07-30T05:30:27;16.30;99.90
47514;DHT22;33951;51.988;5.910;2023-07-30T06:17:33;16.50;99.90
47514;DHT22;33951;51.988;5.910;2023-07-30T06:20:05;16.50;99.90
47514;DHT22;33951;51.988;5.910;2023-07-30T06:22:44;16.50;99.90
47514;DHT22;33951;51.988;5.910;2023-07-30T06:25:13;16.70;99.90
47514;DHT22;33951;51.988;5.910;2023-07-30T06:27:41;16.70;99.90
47514;DHT22;33951;51.988;5.910;2023-07-30T06:30:11;16.60;99.90
47514;DHT22;33951;51.988;5.910;2023-07-30T06:32:51;16.70;99.90
47514;DHT22;33951;51.988;5.910;2023-07-30T06:35:19;16.70;99.90
47514;DHT22;33951;51.988;5.910;2023-07-30T06:37:51;16.60;99.90
47514;DHT22;33951;51.988;5.910;2023-07-30T06:40:22;16.80;99.90
47514;DHT22;33951;51.988;5.910;2023-07-30T06:42:54;16.80;99.90
47514;DHT22;33951;51.988;5.910;2023-07-30T06:45:20;16.80;99.90
47514;DHT22;33951;51.988;5.910;2023-07-30T06:47:48;16.90;99.90
47514;DHT22;33951;51.988;5.910;2023-07-30T06:50:14;16.90;99.90
47514;DHT22;33951;51.988;5.910;2023-07-30T06:52:49;16.90;99.90
47514;DHT22;33951;51.988;5.910;2023-07-30T06:58:39;17.30;99.90
47514;DHT22;33951;51.988;5.910;2023-07-30T07:01:05;17.30;99.90
47514;DHT22;33951;51.988;5.910;2023-07-30T07:03:33;17.30;99.90
47514;DHT22;33951;51.988;5.910;2023-07-30T07:05:59;17.30;99.90
47514;DHT22;33951;51.988;5.910;2023-07-30T07:08:25;17.30;99.90
47514;DHT22;33951;51.988;5.910;2023-07-30T07:14:00;17.40;99.90
47514;DHT22;33951;51.988;5.910;2023-07-30T08:14:21;18.00;99.90
47514;DHT22;33951;51.988;5.910;2023-07-30T09:19:21;18.70;99.90
47514;DHT22;33951;51.988;5.910;2023-07-30T09:21:47;18.60;99.90
47514;DHT22;33951;51.988;5.910;2023-07-30T09:24:21;18.80;99.90
47514;DHT22;33951;51.988;5.910;2023-07-30T09:26:47;18.80;99.90
47514;DHT22;33951;51.988;5.910;2023-07-30T09:29:13;18.80;99.90
47514;DHT22;33951;51.988;5.910;2023-07-30T10:40:16;19.10;99.90
47514;DHT22;33951;51.988;5.910;2023-07-30T10:43:16;19.40;99.90
47514;DHT22;33951;51.988;5.910;2023-07-30T10:45:59;19.70;99.90
47514;DHT22;33951;51.988;5.910;2023-07-30T10:48:50;19.80;99.90
47514;DHT22;33951;51.988;5.910;2023-07-30T10:51:58;19.80;99.90
47514;DHT22;33951;51.988;5.910;2023-07-30T10:55:29;19.80;99.90
47514;DHT22;33951;51.988;5.910;2023-07-30T11:04:23;20.30;99.90
47514;DHT22;33951;51.988;5.910;2023-07-30T11:07:38;20.40;99.90
47514;DHT22;33951;51.988;5.910;2023-07-30T11:13:48;20.30;99.90
47514;DHT22;33951;51.988;5.910;2023-07-30T14:33:24;23.60;99.90
47514;DHT22;33951;51.988;5.910;2023-07-30T14:35:52;22.90;99.90
47514;DHT22;33951;51.988;5.910;2023-07-30T14:38:31;22.60;99.90
47514;DHT22;33951;51.988;5.910;2023-07-30T14:41:00;22.40;99.90
47514;DHT22;33951;51.988;5.910;2023-07-30T14:54:08;22.50;99.90
47514;DHT22;33951;51.988;5.910;2023-07-30T14:56:46;22.50;99.90
47514;DHT22;33951;51.988;5.910;2023-07-30T14:59:56;22.20;99.90
47514;DHT22;33951;51.988;5.910;2023-07-30T15:02:48;22.10;99.90
47514;DHT22;33951;51.988;5.910;2023-07-30T15:08:45;21.90;99.90
47514;DHT22;33951;51.988;5.910;2023-07-30T15:11:16;22.00;99.90
47514;DHT22;33951;51.988;5.910;2023-07-30T15:13:48;22.30;99.90
47514;DHT22;33951;51.988;5.910;2023-07-30T15:16:23;22.50;99.90
47514;DHT22;33951;51.988;5.910;2023-07-30T15:18:52;22.60;99.90
47514;DHT22;33951;51.988;5.910;2023-07-30T15:21:49;22.40;99.90
47514;DHT22;33951;51.988;5.910;2023-07-30T15:24:15;22.20;99.90
47514;DHT22;33951;51.988;5.910;2023-07-30T15:26:43;22.20;99.90
47514;DHT22;33951;51.988;5.910;2023-07-30T15:29:14;22.10;99.90
47514;DHT22;33951;51.988;5.910;2023-07-30T15:31:48;22.00;99.90
47514;DHT22;33951;51.988;5.910;2023-07-30T15:34:17;21.90;99.90
47514;DHT22;33951;51.988;5.910;2023-07-30T15:36:46;21.90;99.90
47514;DHT22;33951;51.988;5.910;2023-07-30T15:39:11;21.90;99.90
47514;DHT22;33951;51.988;5.910;2023-07-30T15:41:38;22.00;99.90
47514;DHT22;33951;51.988;5.910;2023-07-30T15:44:03;21.90;99.90
47514;DHT22;33951;51.988;5.910;2023-07-30T15:46:37;21.80;99.90
47514;DHT22;33951;51.988;5.910;2023-07-30T15:49:03;21.80;99.90
47514;DHT22;33951;51.988;5.910;2023-07-30T15:51:29;21.90;99.90
47514;DHT22;33951;51.988;5.910;2023-07-30T15:53:54;21.80;99.90
47514;DHT22;33951;51.988;5.910;2023-07-30T15:56:23;21.60;99.90
47514;DHT22;33951;51.988;5.910;2023-07-30T15:58:59;21.50;99.90
47514;DHT22;33951;51.988;5.910;2023-07-30T16:01:25;21.50;99.90
47514;DHT22;33951;51.988;5.910;2023-07-30T16:03:53;21.80;99.90
47514;DHT22;33951;51.988;5.910;2023-07-30T16:06:25;21.80;99.90
47514;DHT22;33951;51.988;5.910;2023-07-30T16:08:51;21.90;99.90
47514;DHT22;33951;51.988;5.910;2023-07-30T16:11:17;21.80;99.90
47514;DHT22;33951;51.988;5.910;2023-07-30T16:13:42;21.60;99.90
47514;DHT22;33951;51.988;5.910;2023-07-30T16:16:13;21.50;99.90
47514;DHT22;33951;51.988;5.910;2023-07-30T16:25:24;21.60;99.90
47514;DHT22;33951;51.988;5.910;2023-07-30T16:27:53;21.70;99.90
47514;DHT22;33951;51.988;5.910;2023-07-30T16:30:43;21.60;99.90
47514;DHT22;33951;51.988;5.910;2023-07-30T16:33:09;21.60;99.90
47514;DHT22;33951;51.988;5.910;2023-07-30T16:35:38;21.50;99.90
47514;DHT22;33951;51.988;5.910;2023-07-30T16:38:31;21.30;99.90
47514;DHT22;33951;51.988;5.910;2023-07-30T16:41:02;21.20;99.90
47514;DHT22;33951;51.988;5.910;2023-07-30T16:43:30;21.20;99.90
47514;DHT22;33951;51.988;5.910;2023-07-30T16:46:33;21.30;99.90
47514;DHT22;33951;51.988;5.910;2023-07-30T16:49:09;21.50;99.90
47514;DHT22;33951;51.988;5.910;2023-07-30T16:51:38;21.70;99.90
47514;DHT22;33951;51.988;5.910;2023-07-30T16:54:04;21.80;99.90
47514;DHT22;33951;51.988;5.910;2023-07-30T16:56:32;21.80;99.90
47514;DHT22;33951;51.988;5.910;2023-07-30T16:58:58;21.50;99.90
47514;DHT22;33951;51.988;5.910;2023-07-30T17:01:23;21.40;99.90
47514;DHT22;33951;51.988;5.910;2023-07-30T17:03:49;21.30;99.90
47514;DHT22;33951;51.988;5.910;2023-07-30T17:06:20;21.20;99.90
47514;DHT22;33951;51.988;5.910;2023-07-30T17:08:48;21.30;99.90
47514;DHT22;33951;51.988;5.910;2023-07-30T17:11:17;21.30;99.90
47514;DHT22;33951;51.988;5.910;2023-07-30T17:13:47;21.10;99.90
47514;DHT22;33951;51.988;5.910;2023-07-30T17:16:21;21.00;99.90
47514;DHT22;33951;51.988;5.910;2023-07-30T17:18:47;21.10;99.90
47514;DHT22;33951;51.988;5.910;2023-07-30T17:21:16;21.00;99.90
47514;DHT22;33951;51.988;5.910;2023-07-30T17:23:44;20.80;99.90
47514;DHT22;33951;51.988;5.910;2023-07-30T17:26:09;20.60;99.90
47514;DHT22;33951;51.988;5.910;2023-07-30T17:28:35;20.60;99.90
47514;DHT22;33951;51.988;5.910;2023-07-30T17:31:01;20.50;99.90
47514;DHT22;33951;51.988;5.910;2023-07-30T17:33:27;20.40;99.90
47514;DHT22;33951;51.988;5.910;2023-07-30T17:35:53;20.20;99.90
47514;DHT22;33951;51.988;5.910;2023-07-30T17:38:21;20.20;99.90
47514;DHT22;33951;51.988;5.910;2023-07-30T17:40:57;20.20;99.90
47514;DHT22;33951;51.988;5.910;2023-07-30T17:43:23;20.10;99.90
47514;DHT22;33951;51.988;5.910;2023-07-30T17:45:49;20.00;99.90
47514;DHT22;33951;51.988;5.910;2023-07-30T17:48:16;19.90;99.90
47514;DHT22;33951;51.988;5.910;2023-07-30T17:50:42;19.80;99.90
47514;DHT22;33951;51.988;5.910;2023-07-30T17:53:07;19.70;99.90
47514;DHT22;33951;51.988;5.910;2023-07-30T17:55:33;19.60;99.90
47514;DHT22;33951;51.988;5.910;2023-07-30T17:57:59;19.70;99.90
47514;DHT22;33951;51.988;5.910;2023-07-30T18:00:25;19.70;99.90
47514;DHT22;33951;51.988;5.910;2023-07-30T18:02:50;19.60;99.90
47514;DHT22;33951;51.988;5.910;2023-07-30T18:05:17;19.50;99.90
47514;DHT22;33951;51.988;5.910;2023-07-30T18:07:42;19.40;99.90
47514;DHT22;33951;51.988;5.910;2023-07-30T18:10:10;19.40;99.90
47514;DHT22;33951;51.988;5.910;2023-07-30T18:12:36;19.10;99.90
47514;DHT22;33951;51.988;5.910;2023-07-30T18:15:05;19.00;99.90
47514;DHT22;33951;51.988;5.910;2023-07-30T18:17:30;18.90;99.90
47514;DHT22;33951;51.988;5.910;2023-07-30T18:20:13;18.70;99.90
47514;DHT22;33951;51.988;5.910;2023-07-30T18:22:42;18.70;99.90
47514;DHT22;33951;51.988;5.910;2023-07-30T18:25:11;18.70;99.90
47514;DHT22;33951;51.988;5.910;2023-07-30T18:27:36;18.70;99.90
47514;DHT22;33951;51.988;5.910;2023-07-30T18:30:03;18.70;99.90
47514;DHT22;33951;51.988;5.910;2023-07-30T18:32:29;18.60;99.90
47514;DHT22;33951;51.988;5.910;2023-07-30T18:35:02;18.60;99.90
47514;DHT22;33951;51.988;5.910;2023-07-30T18:37:28;18.40;99.90
47514;DHT22;33951;51.988;5.910;2023-07-30T18:39:54;18.30;99.90
47514;DHT22;33951;51.988;5.910;2023-07-30T18:42:21;18.20;99.90
47514;DHT22;33951;51.988;5.910;2023-07-30T18:44:49;18.20;99.90
47514;DHT22;33951;51.988;5.910;2023-07-30T18:47:17;18.20;99.90
47514;DHT22;33951;51.988;5.910;2023-07-30T18:49:46;18.10;99.90
47514;DHT22;33951;51.988;5.910;2023-07-30T18:52:16;18.10;99.90
47514;DHT22;33951;51.988;5.910;2023-07-30T18:54:43;18.10;99.90
47514;DHT22;33951;51.988;5.910;2023-07-30T18:57:10;17.90;99.90
47514;DHT22;33951;51.988;5.910;2023-07-30T18:59:46;17.90;99.90
47514;DHT22;33951;51.988;5.910;2023-07-30T19:02:12;17.70;99.90
47514;DHT22;33951;51.988;5.910;2023-07-30T19:04:40;17.60;99.90
47514;DHT22;33951;51.988;5.910;2023-07-30T19:07:06;17.70;99.90
47514;DHT22;33951;51.988;5.910;2023-07-30T19:09:34;17.80;99.90
47514;DHT22;33951;51.988;5.910;2023-07-30T19:12:00;17.80;99.90
47514;DHT22;33951;51.988;5.910;2023-07-30T19:14:25;17.70;99.90
47514;DHT22;33951;51.988;5.910;2023-07-30T19:16:58;17.60;99.90
47514;DHT22;33951;51.988;5.910;2023-07-30T19:19:30;17.50;99.90
47514;DHT22;33951;51.988;5.910;2023-07-30T19:21:55;17.40;99.90
47514;DHT22;33951;51.988;5.910;2023-07-30T19:24:31;17.20;99.90
47514;DHT22;33951;51.988;5.910;2023-07-30T19:27:03;17.10;99.90
47514;DHT22;33951;51.988;5.910;2023-07-30T19:29:31;17.00;99.90
47514;DHT22;33951;51.988;5.910;2023-07-30T19:31:59;16.90;99.90
47514;DHT22;33951;51.988;5.910;2023-07-30T19:34:25;17.00;99.90
47514;DHT22;33951;51.988;5.910;2023-07-30T19:37:01;17.00;99.90
47514;DHT22;33951;51.988;5.910;2023-07-30T19:39:27;16.90;99.90
47514;DHT22;33951;51.988;5.910;2023-07-30T19:41:56;16.90;99.90
47514;DHT22;33951;51.988;5.910;2023-07-30T19:44:25;16.90;99.90
47514;DHT22;33951;51.988;5.910;2023-07-30T19:46:53;16.70;99.90
47514;DHT22;33951;51.988;5.910;2023-07-30T19:49:38;16.60;99.90
47514;DHT22;33951;51.988;5.910;2023-07-30T19:52:07;16.60;99.90
47514;DHT22;33951;51.988;5.910;2023-07-30T19:54:35;16.50;99.90
47514;DHT22;33951;51.988;5.910;2023-07-30T19:57:01;16.50;99.90
47514;DHT22;33951;51.988;5.910;2023-07-30T19:59:32;16.50;99.90
47514;DHT22;33951;51.988;5.910;2023-07-30T20:02:44;16.60;99.90
47514;DHT22;33951;51.988;5.910;2023-07-30T20:05:14;16.60;99.90
47514;DHT22;33951;51.988;5.910;2023-07-30T20:07:46;16.60;99.90
47514;DHT22;33951;51.988;5.910;2023-07-30T20:10:21;16.60;99.90
47514;DHT22;33951;51.988;5.910;2023-07-30T20:12:57;16.60;99.90
47514;DHT22;33951;51.988;5.910;2023-07-30T20:15:41;16.60;99.90
47514;DHT22;33951;51.988;5.910;2023-07-30T20:18:52;16.60;99.90
47514;DHT22;33951;51.988;5.910;2023-07-30T20:21:51;16.60;99.90
47514;DHT22;33951;51.988;5.910;2023-07-30T21:13:34;16.20;99.90
47514;DHT22;33951;51.988;5.910;2023-07-30T22:11:03;15.50;99.90
47514;DHT22;33951;51.988;5.910;2023-07-30T22:17:44;15.40;99.90
47514;DHT22;33951;51.988;5.910;2023-07-30T22:20:21;15.30;99.90
47514;DHT22;33951;51.988;5.910;2023-07-30T22:22:54;15.20;99.90
47514;DHT22;33951;51.988;5.910;2023-07-30T22:25:23;15.20;99.90
47514;DHT22;33951;51.988;5.910;2023-07-30T22:33:46;15.20;99.90
47514;DHT22;33951;51.988;5.910;2023-07-30T22:36:14;15.10;99.90
47514;DHT22;33951;51.988;5.910;2023-07-30T22:38:51;15.20;99.90
47514;DHT22;33951;51.988;5.910;2023-07-30T22:41:16;15.10;99.90
47514;DHT22;33951;51.988;5.910;2023-07-30T22:43:45;15.10;99.90
47514;DHT22;33951;51.988;5.910;2023-07-30T22:46:10;15.20;99.90
47514;DHT22;33951;51.988;5.910;2023-07-30T22:48:39;15.20;99.90
47514;DHT22;33951;51.988;5.910;2023-07-30T22:51:04;15.20;99.90
47514;DHT22;33951;51.988;5.910;2023-07-30T22:53:36;15.20;99.90
47514;DHT22;33951;51.988;5.910;2023-07-30T22:56:01;15.10;99.90
47514;DHT22;33951;51.988;5.910;2023-07-30T22:58:27;15.00;99.90
47514;DHT22;33951;51.988;5.910;2023-07-30T23:00:53;14.90;99.90
47514;DHT22;33951;51.988;5.910;2023-07-30T23:03:19;15.00;99.90
47514;DHT22;33951;51.988;5.910;2023-07-30T23:05:45;15.00;99.90
47514;DHT22;33951;51.988;5.910;2023-07-30T23:08:13;14.90;99.90
47514;DHT22;33951;51.988;5.910;2023-07-30T23:10:41;14.90;99.90
47514;DHT22;33951;51.988;5.910;2023-07-30T23:13:10;14.80;99.90
47514;DHT22;33951;51.988;5.910;2023-07-30T23:15:36;14.70;99.90
47514;DHT22;33951;51.988;5.910;2023-07-30T23:18:01;14.90;99.90
47514;DHT22;33951;51.988;5.910;2023-07-30T23:20:27;14.70;99.90
47514;DHT22;33951;51.988;5.910;2023-07-30T23:22:53;14.70;99.90
47514;DHT22;33951;51.988;5.910;2023-07-30T23:25:21;14.70;99.90
47514;DHT22;33951;51.988;5.910;2023-07-30T23:27:47;14.80;99.90
47514;DHT22;33951;51.988;5.910;2023-07-30T23:30:17;14.80;99.90
47514;DHT22;33951;51.988;5.910;2023-07-30T23:32:48;14.80;99.90
47514;DHT22;33951;51.988;5.910;2023-07-30T23:35:14;14.80;99.90
47514;DHT22;33951;51.988;5.910;2023-07-30T23:37:43;15.00;99.90
47514;DHT22;33951;51.988;5.910;2023-07-30T23:40:09;15.00;99.90
47514;DHT22;33951;51.988;5.910;2023-07-30T23:42:35;15.00;99.90
47514;DHT22;33951;51.988;5.910;2023-07-30T23:45:05;15.10;99.90
47514;DHT22;33951;51.988;5.910;2023-07-30T23:47:34;15.00;99.90
47514;DHT22;33951;51.988;5.910;2023-07-30T23:50:00;15.10;99.90
47514;DHT22;33951;51.988;5.910;2023-07-30T23:52:28;15.10;99.90
47514;DHT22;33951;51.988;5.910;2023-07-30T23:54:54;15.10;99.90
47514;DHT22;33951;51.988;5.910;2023-07-30T23:57:25;15.10;99.90
